createdAt,value
2022-10-24T00:00:58.804Z,96740.91
2022-10-24T00:04:00.494Z,96731.53
2022-10-24T00:07:02.351Z,96732.88
2022-10-24T00:10:04.481Z,96736.31
2022-10-24T00:13:06.963Z,96736.22
2022-10-24T00:16:08.594Z,96727.69
2022-10-24T00:19:10.229Z,96730.13
2022-10-24T00:22:11.721Z,96732.81
2022-10-24T00:25:13.289Z,96733.50
2022-10-24T00:28:14.831Z,96732.94
2022-10-24T00:31:17.116Z,96728.81
2022-10-24T00:34:18.653Z,96728.16
2022-10-24T00:40:26.661Z,96724.28
2022-10-24T00:43:28.390Z,96722.06
2022-10-24T00:46:29.953Z,96731.38
2022-10-24T00:49:38.463Z,96742.38
2022-10-24T00:52:43.579Z,96748.94
2022-10-24T00:55:45.973Z,96752.16
2022-10-24T00:58:47.583Z,96762.72
2022-10-24T01:01:49.333Z,96765.91
2022-10-24T01:04:50.897Z,96765.25
2022-10-24T01:07:58.554Z,96763.72
2022-10-24T01:11:03.178Z,96749.72
2022-10-24T01:14:04.821Z,96749.94
2022-10-24T01:17:29.644Z,96749.72
2022-10-24T01:20:31.508Z,96744.63
2022-10-24T01:23:40.334Z,96738.38
2022-10-24T01:26:58.347Z,96743.47
2022-10-24T01:30:09.240Z,96734.44
2022-10-24T01:33:15.986Z,96739.88
2022-10-24T01:36:19.879Z,96735.88
2022-10-24T01:39:21.446Z,96725.53
2022-10-24T01:42:23.024Z,96724.97
2022-10-24T01:45:26.426Z,96727.19
2022-10-24T01:48:28.401Z,96723.31
2022-10-24T01:51:29.951Z,96721.84
2022-10-24T01:54:31.481Z,96724.44
2022-10-24T01:57:33.504Z,96717.44
2022-10-24T02:00:35.283Z,96719.94
2022-10-24T02:03:47.855Z,96713.03
2022-10-24T02:06:49.358Z,96707.69
2022-10-24T02:09:53.359Z,96697.03
2022-10-24T02:13:02.651Z,96688.84
2022-10-24T02:16:04.277Z,96689.28
2022-10-24T02:19:05.794Z,96680.19
2022-10-24T02:22:22.523Z,96686.75
2022-10-24T02:25:43.109Z,96675.75
2022-10-24T02:28:45.636Z,96672.88
2022-10-24T02:31:51.325Z,96676.22
2022-10-24T02:34:52.829Z,96663.56
2022-10-24T02:37:55.598Z,96659.22
2022-10-24T02:40:57.243Z,96652.34
2022-10-24T02:43:58.782Z,96650.00
2022-10-24T02:47:00.898Z,96643.13
2022-10-24T02:50:02.563Z,96648.22
2022-10-24T02:53:04.356Z,96645.56
2022-10-24T02:56:06.030Z,96639.81
2022-10-24T03:02:14.069Z,96642.47
2022-10-24T03:05:15.621Z,96632.34
2022-10-24T03:08:17.183Z,96643.88
2022-10-24T03:11:18.780Z,96632.56
2022-10-24T03:14:20.288Z,96631.41
2022-10-24T03:17:22.031Z,96629.97
2022-10-24T03:20:24.652Z,96632.16
2022-10-24T03:23:28.698Z,96618.00
2022-10-24T03:26:30.241Z,96626.53
2022-10-24T03:29:31.795Z,96629.72
2022-10-24T03:32:34.467Z,96624.94
2022-10-24T03:35:37.149Z,96629.34
2022-10-24T03:38:38.645Z,96630.63
2022-10-24T03:41:40.245Z,96621.94
2022-10-24T03:44:41.776Z,96627.97
2022-10-24T03:47:43.339Z,96635.56
2022-10-24T03:50:44.892Z,96626.69
2022-10-24T03:53:46.557Z,96630.03
2022-10-24T03:56:49.374Z,96618.78
2022-10-24T03:59:51.065Z,96634.75
2022-10-24T04:02:52.606Z,96634.88
2022-10-24T04:05:54.267Z,96638.59
2022-10-24T04:08:57.089Z,96639.66
2022-10-24T04:11:58.662Z,96631.84
2022-10-24T04:15:03.935Z,96641.44
2022-10-24T04:18:08.276Z,96641.81
2022-10-24T04:21:09.972Z,96650.78
2022-10-24T04:24:11.922Z,96646.59
2022-10-24T04:27:13.505Z,96644.88
2022-10-24T04:30:16.495Z,96660.75
2022-10-24T04:33:18.440Z,96667.41
2022-10-24T04:36:21.108Z,96659.63
2022-10-24T04:39:22.632Z,96662.78
2022-10-24T04:42:24.451Z,96664.44
2022-10-24T04:45:25.988Z,96674.41
2022-10-24T04:48:27.514Z,96680.09
2022-10-24T04:51:29.046Z,96683.69
2022-10-24T04:54:30.643Z,96683.91
2022-10-24T04:57:32.153Z,96693.44
2022-10-24T05:00:33.706Z,96693.78
2022-10-24T05:03:35.356Z,96705.19
2022-10-24T05:06:39.227Z,96710.00
2022-10-24T05:09:42.973Z,96719.78
2022-10-24T05:12:44.810Z,96718.16
2022-10-24T05:15:46.693Z,96734.91
2022-10-24T05:18:48.248Z,96738.09
2022-10-24T05:21:49.785Z,96741.69
2022-10-24T05:24:51.394Z,96739.53
2022-10-24T05:27:52.892Z,96741.03
2022-10-24T05:30:54.418Z,96749.06
2022-10-24T05:33:55.998Z,96748.41
2022-10-24T05:36:57.580Z,96757.97
2022-10-24T05:39:59.108Z,96755.88
2022-10-24T05:43:00.659Z,96751.81
2022-10-24T05:46:02.257Z,96749.44
2022-10-24T05:49:03.861Z,96752.72
2022-10-24T05:52:05.436Z,96757.84
2022-10-24T05:55:08.219Z,96751.34
2022-10-24T05:58:10.228Z,96761.13
2022-10-24T06:01:11.877Z,96767.88
2022-10-24T06:04:13.959Z,96771.97
2022-10-24T06:07:15.757Z,96772.19
2022-10-24T06:10:17.346Z,96769.97
2022-10-24T06:13:19.031Z,96770.53
2022-10-24T06:16:20.651Z,96774.19
2022-10-24T06:19:22.357Z,96765.84
2022-10-24T06:22:29.691Z,96769.88
2022-10-24T06:25:31.296Z,96778.97
2022-10-24T06:28:32.860Z,96779.97
2022-10-24T06:31:35.760Z,96778.53
2022-10-24T06:34:37.328Z,96778.69
2022-10-24T06:37:40.220Z,96784.88
2022-10-24T06:40:43.586Z,96784.19
2022-10-24T06:43:45.350Z,96783.03
2022-10-24T06:46:46.965Z,96799.41
2022-10-24T06:49:48.621Z,96794.31
2022-10-24T06:52:50.144Z,96797.34
2022-10-24T06:55:54.213Z,96804.47
2022-10-24T06:58:56.150Z,96808.88
2022-10-24T07:02:03.272Z,96803.91
2022-10-24T07:05:11.456Z,96812.94
2022-10-24T07:08:15.759Z,96819.59
2022-10-24T07:11:17.432Z,96825.75
2022-10-24T07:14:19.065Z,96828.34
2022-10-24T07:17:21.021Z,96831.63
2022-10-24T07:20:22.641Z,96839.50
2022-10-24T07:23:24.149Z,96833.91
2022-10-24T07:26:26.265Z,96839.41
2022-10-24T07:29:27.917Z,96833.78
2022-10-24T07:32:29.626Z,96839.72
2022-10-24T07:35:31.259Z,96848.94
2022-10-24T07:38:32.846Z,96851.59
2022-10-24T07:41:36.730Z,96849.88
2022-10-24T07:44:38.288Z,96849.91
2022-10-24T07:47:39.792Z,96859.53
2022-10-24T07:50:42.610Z,96869.13
2022-10-24T07:53:44.385Z,96865.75
2022-10-24T07:56:46.018Z,96869.13
2022-10-24T07:59:47.632Z,96869.38
2022-10-24T08:05:56.448Z,96882.41
2022-10-24T08:08:58.209Z,96880.00
2022-10-24T08:11:59.790Z,96881.94
2022-10-24T08:15:01.374Z,96881.50
2022-10-24T08:18:02.948Z,96889.75
2022-10-24T08:21:05.593Z,96889.22
2022-10-24T08:24:07.235Z,96891.47
2022-10-24T08:27:08.900Z,96879.59
2022-10-24T08:30:10.673Z,96890.63
2022-10-24T08:33:15.992Z,96887.97
2022-10-24T08:36:22.594Z,96895.31
2022-10-24T08:39:24.320Z,96898.41
2022-10-24T08:42:25.870Z,96906.75
2022-10-24T08:45:34.413Z,96915.63
2022-10-24T08:48:40.986Z,96923.97
2022-10-24T08:51:43.909Z,96933.25
2022-10-24T08:54:45.456Z,96924.47
2022-10-24T08:57:52.259Z,96928.13
2022-10-24T09:00:54.707Z,96931.13
2022-10-24T09:03:57.523Z,96938.78
2022-10-24T09:06:59.455Z,96941.13
2022-10-24T09:10:04.032Z,96939.69
2022-10-24T09:13:10.521Z,96945.31
2022-10-24T09:16:15.168Z,96948.66
2022-10-24T09:19:21.385Z,96953.13
2022-10-24T09:22:23.493Z,96949.69
2022-10-24T09:25:32.174Z,96948.47
2022-10-24T09:28:34.222Z,96963.16
2022-10-24T09:31:35.714Z,96963.69
2022-10-24T09:34:37.213Z,96973.50
2022-10-24T09:37:44.153Z,96978.97
2022-10-24T09:40:52.875Z,96979.38
2022-10-24T09:43:56.162Z,96981.63
2022-10-24T09:47:01.088Z,96983.63
2022-10-24T09:50:02.591Z,96989.41
2022-10-24T09:53:04.283Z,96988.84
2022-10-24T09:56:12.937Z,96992.84
2022-10-24T09:59:34.344Z,96990.81
2022-10-24T10:02:36.665Z,96996.44
2022-10-24T10:05:42.418Z,96999.53
2022-10-24T10:08:49.291Z,97006.44
2022-10-24T10:12:02.621Z,97009.41
2022-10-24T10:15:17.536Z,97014.78
2022-10-24T10:18:22.195Z,97016.66
2022-10-24T10:21:25.123Z,97018.13
2022-10-24T10:24:26.669Z,97015.66
2022-10-24T10:27:36.026Z,97015.75
2022-10-24T10:30:37.600Z,97017.25
2022-10-24T10:33:39.142Z,97025.38
2022-10-24T10:36:55.864Z,97023.22
2022-10-24T10:40:03.437Z,97016.75
2022-10-24T10:43:07.768Z,97021.34
2022-10-24T10:46:13.218Z,97011.56
2022-10-24T10:49:30.731Z,97024.78
2022-10-24T10:52:33.473Z,97029.78
2022-10-24T10:55:38.570Z,97033.84
2022-10-24T10:59:03.344Z,97029.19
2022-10-24T11:02:16.949Z,97024.09
2022-10-24T11:05:37.187Z,97038.50
2022-10-24T11:08:48.058Z,97040.41
2022-10-24T11:11:55.821Z,97034.00
2022-10-24T11:15:08.390Z,97042.47
2022-10-24T11:18:19.281Z,97052.06
2022-10-24T11:21:21.858Z,97074.09
2022-10-24T11:24:23.453Z,97041.97
2022-10-24T11:27:45.313Z,97061.34
2022-10-24T11:31:00.347Z,97053.97
2022-10-24T11:34:20.612Z,97060.09
2022-10-24T11:37:27.940Z,97069.09
2022-10-24T11:40:30.399Z,97071.69
2022-10-24T11:43:36.651Z,97073.59
2022-10-24T11:46:40.741Z,97077.03
2022-10-24T11:49:43.852Z,97075.50
2022-10-24T11:52:47.921Z,97090.13
2022-10-24T11:56:12.035Z,97078.22
2022-10-24T11:59:16.309Z,97075.06
2022-10-24T12:02:40.585Z,97092.50
2022-10-24T12:05:42.362Z,97079.72
2022-10-24T12:08:56.270Z,97075.69
2022-10-24T12:12:06.909Z,97082.56
2022-10-24T12:15:27.166Z,97077.19
2022-10-24T12:18:30.433Z,97083.75
2022-10-24T12:21:36.508Z,97067.69
2022-10-24T12:24:41.153Z,97085.75
2022-10-24T12:27:42.744Z,97093.16
2022-10-24T12:30:44.491Z,97093.28
2022-10-24T12:33:47.313Z,97089.41
2022-10-24T12:37:21.336Z,97102.94
2022-10-24T12:40:41.570Z,97090.91
2022-10-24T12:43:44.362Z,97107.31
2022-10-24T12:46:45.859Z,97085.91
2022-10-24T12:49:51.271Z,97105.72
2022-10-24T12:52:56.591Z,97108.16
2022-10-24T12:55:58.210Z,97106.53
2022-10-24T12:59:23.123Z,97101.19
2022-10-24T13:02:30.914Z,97101.34
2022-10-24T13:05:52.797Z,97115.78
2022-10-24T13:08:57.720Z,97122.38
2022-10-24T13:12:18.113Z,97112.25
2022-10-24T13:15:29.946Z,97124.03
2022-10-24T13:18:50.314Z,97111.88
2022-10-24T13:21:53.061Z,97116.84
2022-10-24T13:24:54.621Z,97124.59
2022-10-24T13:28:14.979Z,97124.59
2022-10-24T13:31:16.542Z,97132.53
2022-10-24T13:34:18.217Z,97121.28
2022-10-24T13:37:34.108Z,97128.63
2022-10-24T13:40:35.764Z,97122.97
2022-10-24T13:43:42.396Z,97129.00
2022-10-24T13:46:46.896Z,97128.13
2022-10-24T13:49:50.573Z,97132.44
2022-10-24T13:52:54.917Z,97124.41
2022-10-24T13:55:56.473Z,97138.69
2022-10-24T13:58:58.119Z,97133.59
2022-10-24T14:02:01.030Z,97147.47
2022-10-24T14:05:02.629Z,97135.97
2022-10-24T14:08:04.594Z,97139.41
2022-10-24T14:11:06.873Z,97131.38
2022-10-24T14:14:14.896Z,97148.16
2022-10-24T14:17:23.535Z,97144.09
2022-10-24T14:20:30.733Z,97144.25
2022-10-24T14:23:37.058Z,97163.28
2022-10-24T14:26:39.069Z,97148.81
2022-10-24T14:29:40.883Z,97161.19
2022-10-24T14:32:42.418Z,97152.19
2022-10-24T14:35:43.974Z,97176.03
2022-10-24T14:41:47.008Z,97177.00
2022-10-24T14:44:49.586Z,97192.25
2022-10-24T14:47:52.774Z,97171.75
2022-10-24T14:50:54.266Z,97175.31
2022-10-24T14:53:58.850Z,97176.44
2022-10-24T14:57:01.015Z,97180.13
2022-10-24T15:00:07.608Z,97179.28
2022-10-24T15:03:09.469Z,97186.97
2022-10-24T15:06:12.514Z,97188.50
2022-10-24T15:09:17.420Z,97183.25
2022-10-24T15:12:24.086Z,97181.75
2022-10-24T15:15:25.916Z,97187.78
2022-10-24T15:18:38.014Z,97174.03
2022-10-24T15:21:40.681Z,97172.75
2022-10-24T15:24:44.362Z,97194.50
2022-10-24T15:27:46.444Z,97185.00
2022-10-24T15:30:48.072Z,97181.06
2022-10-24T15:33:49.621Z,97195.78
2022-10-24T15:36:51.794Z,97202.44
2022-10-24T15:39:53.947Z,97193.16
2022-10-24T15:42:55.685Z,97201.03
2022-10-24T15:45:57.665Z,97208.84
2022-10-24T15:48:59.230Z,97209.41
2022-10-24T15:52:00.888Z,97211.72
2022-10-24T15:55:02.902Z,97223.06
2022-10-24T15:58:04.506Z,97212.53
2022-10-24T16:01:06.519Z,97223.69
2022-10-24T16:04:08.528Z,97225.75
2022-10-24T16:07:10.824Z,97220.59
2022-10-24T16:10:13.837Z,97224.91
2022-10-24T16:13:15.746Z,97236.59
2022-10-24T16:16:17.378Z,97241.03
2022-10-24T16:19:19.154Z,97233.16
2022-10-24T16:22:20.685Z,97240.41
2022-10-24T16:25:26.273Z,97238.16
2022-10-24T16:28:28.904Z,97247.44
2022-10-24T16:31:31.124Z,97261.22
2022-10-24T16:34:32.914Z,97269.03
2022-10-24T16:37:34.602Z,97265.06
2022-10-24T16:43:49.139Z,97277.72
2022-10-24T16:46:52.729Z,97295.53
2022-10-24T16:49:58.034Z,97290.53
2022-10-24T16:53:00.702Z,97293.50
2022-10-24T16:56:02.254Z,97303.97
2022-10-24T16:59:03.849Z,97297.75
2022-10-24T17:02:05.567Z,97304.53
2022-10-24T17:05:07.684Z,97307.84
2022-10-24T17:08:09.259Z,97313.63
2022-10-24T17:11:32.359Z,97317.44
2022-10-24T17:14:33.389Z,97321.03
2022-10-24T17:17:35.191Z,97327.56
2022-10-24T17:20:36.822Z,97323.50
2022-10-24T17:23:38.419Z,97333.25
2022-10-24T17:26:40.586Z,97339.25
2022-10-24T17:29:42.384Z,97337.44
2022-10-24T17:32:44.285Z,97344.72
2022-10-24T17:35:48.303Z,97347.59
2022-10-24T17:38:56.257Z,97351.41
2022-10-24T17:41:57.860Z,97359.91
2022-10-24T17:44:59.476Z,97364.13
2022-10-24T17:48:01.072Z,97357.59
2022-10-24T17:51:02.923Z,97364.66
2022-10-24T17:54:05.901Z,97367.34
2022-10-24T17:57:07.846Z,97368.00
2022-10-24T18:00:09.904Z,97382.28
2022-10-24T18:03:12.811Z,97383.19
2022-10-24T18:06:14.448Z,97392.78
2022-10-24T18:09:16.038Z,97396.84
2022-10-24T18:12:17.557Z,97403.47
2022-10-24T18:15:20.197Z,97402.06
2022-10-24T18:18:22.305Z,97411.59
2022-10-24T18:21:25.050Z,97418.16
2022-10-24T18:24:26.572Z,97411.91
2022-10-24T18:27:28.252Z,97416.44
2022-10-24T18:30:29.920Z,97412.06
2022-10-24T18:33:32.281Z,97421.78
2022-10-24T18:36:33.872Z,97426.97
2022-10-24T18:39:35.401Z,97430.91
2022-10-24T18:42:43.720Z,97432.13
2022-10-24T18:45:46.766Z,97434.03
2022-10-24T18:48:48.632Z,97437.94
2022-10-24T18:52:08.953Z,97438.41
2022-10-24T18:55:20.872Z,97424.78
2022-10-24T18:58:22.477Z,97427.75
2022-10-24T19:01:44.336Z,97434.81
2022-10-24T19:04:46.993Z,97438.09
2022-10-24T19:07:49.369Z,97443.72
2022-10-24T19:10:56.148Z,97455.56
2022-10-24T19:13:58.031Z,97457.09
2022-10-24T19:16:59.716Z,97450.66
2022-10-24T19:20:01.366Z,97451.09
2022-10-24T19:23:06.406Z,97459.53
2022-10-24T19:26:13.157Z,97450.66
2022-10-24T19:29:14.750Z,97449.94
2022-10-24T19:32:16.374Z,97448.06
2022-10-24T19:35:18.758Z,97446.59
2022-10-24T19:38:20.633Z,97448.16
2022-10-24T19:41:22.324Z,97443.63
2022-10-24T19:44:24.813Z,97439.38
2022-10-24T19:47:26.474Z,97445.00
2022-10-24T19:50:28.064Z,97437.88
2022-10-24T19:53:32.474Z,97431.97
2022-10-24T19:56:33.985Z,97427.91
2022-10-24T19:59:36.390Z,97431.34
2022-10-24T20:02:37.961Z,97439.03
2022-10-24T20:05:41.247Z,97438.22
2022-10-24T20:08:42.852Z,97446.53
2022-10-24T20:11:44.404Z,97440.72
2022-10-24T20:14:45.928Z,97453.88
2022-10-24T20:17:47.497Z,97450.28
2022-10-24T20:20:50.082Z,97453.91
2022-10-24T20:23:51.970Z,97456.25
2022-10-24T20:26:53.569Z,97466.28
2022-10-24T20:29:55.159Z,97470.16
2022-10-24T20:32:56.683Z,97473.34
2022-10-24T20:35:59.172Z,97478.81
2022-10-24T20:39:01.493Z,97478.50
2022-10-24T20:42:03.474Z,97487.44
2022-10-24T20:45:05.283Z,97479.63
2022-10-24T20:48:06.965Z,97485.06
2022-10-24T20:51:12.479Z,97491.84
2022-10-24T20:54:14.032Z,97486.81
2022-10-24T20:57:15.585Z,97481.66
2022-10-24T21:00:18.302Z,97492.50
2022-10-24T21:03:20.161Z,97497.66
2022-10-24T21:06:25.377Z,97501.91
2022-10-24T21:09:26.887Z,97511.78
2022-10-24T21:12:28.506Z,97511.63
2022-10-24T21:15:35.091Z,97512.56
2022-10-24T21:18:37.624Z,97507.22
2022-10-24T21:21:39.297Z,97514.78
2022-10-24T21:24:40.899Z,97506.28
2022-10-24T21:27:42.439Z,97513.19
2022-10-24T21:30:43.973Z,97519.94
2022-10-24T21:33:45.507Z,97528.72
2022-10-24T21:36:47.170Z,97544.22
2022-10-24T21:39:48.682Z,97544.22
2022-10-24T21:42:50.336Z,97544.69
2022-10-24T21:45:51.947Z,97547.81
2022-10-24T21:48:54.555Z,97552.38
2022-10-24T21:51:56.078Z,97552.22
2022-10-24T21:54:57.576Z,97545.81
2022-10-24T21:57:59.097Z,97544.84
2022-10-24T22:01:00.752Z,97550.63
2022-10-24T22:04:02.466Z,97549.53
2022-10-24T22:07:06.019Z,97549.06
2022-10-24T22:10:07.898Z,97557.66
2022-10-24T22:13:09.422Z,97565.66
2022-10-24T22:16:11.671Z,97565.16
2022-10-24T22:19:13.499Z,97571.44
2022-10-24T22:22:15.414Z,97575.97
2022-10-24T22:25:16.927Z,97573.25
2022-10-24T22:28:18.575Z,97581.88
2022-10-24T22:31:20.326Z,97589.22
2022-10-24T22:34:23.076Z,97594.38
2022-10-24T22:37:24.987Z,97594.19
2022-10-24T22:40:27.904Z,97589.97
2022-10-24T22:43:29.713Z,97597.31
2022-10-24T22:46:46.778Z,97595.41
2022-10-24T22:49:51.413Z,97598.78
2022-10-24T22:52:53.052Z,97600.34
2022-10-24T22:55:54.642Z,97606.47
2022-10-24T22:58:56.361Z,97608.81
2022-10-24T23:02:04.117Z,97613.34
2022-10-24T23:05:06.517Z,97622.47
2022-10-24T23:08:09.748Z,97628.63
2022-10-24T23:11:11.762Z,97637.56
2022-10-24T23:14:13.609Z,97645.69
2022-10-24T23:17:22.761Z,97654.91
2022-10-24T23:20:27.692Z,97650.78
2022-10-24T23:23:29.844Z,97653.59
2022-10-24T23:26:49.859Z,97657.34
2022-10-24T23:29:51.757Z,97659.22
2022-10-24T23:32:53.437Z,97664.69
2022-10-24T23:35:58.710Z,97678.00
2022-10-24T23:39:00.535Z,97674.38
2022-10-24T23:42:02.492Z,97676.06
2022-10-24T23:45:04.450Z,97681.72
2022-10-24T23:48:13.631Z,97688.59
2022-10-24T23:51:17.940Z,97685.16
2022-10-24T23:54:19.801Z,97684.38
2022-10-24T23:57:21.492Z,97691.31
